sensor_id;sensor_type;location;lat;lon;timestamp;P1;durP1;ratioP1;P2;durP2;ratioP2
9900;SDS011;4989;48.772;9.154;2023-08-17T00:00:10;61.40;;;57.80;;
9900;SDS011;4989;48.772;9.154;2023-08-17T00:05:17;44.67;;;41.57;;
9900;SDS011;4989;48.772;9.154;2023-08-17T00:10:20;36.60;;;33.80;;
9900;SDS011;4989;48.772;9.154;2023-08-17T00:15:22;36.27;;;33.50;;
9900;SDS011;4989;48.772;9.154;2023-08-17T00:20:24;34.57;;;31.97;;
9900;SDS011;4989;48.772;9.154;2023-08-17T00:25:26;34.93;;;32.33;;
9900;SDS011;4989;48.772;9.154;2023-08-17T00:30:29;41.77;;;38.93;;
9900;SDS011;4989;48.772;9.154;2023-08-17T00:35:32;56.67;;;53.30;;
9900;SDS011;4989;48.772;9.154;2023-08-17T00:40:34;60.13;;;56.63;;
9900;SDS011;4989;48.772;9.154;2023-08-17T00:45:36;58.70;;;55.27;;
9900;SDS011;4989;48.772;9.154;2023-08-17T00:50:39;60.20;;;56.73;;
9900;SDS011;4989;48.772;9.154;2023-08-17T00:55:43;61.80;;;58.33;;
9900;SDS011;4989;48.772;9.154;2023-08-17T01:00:46;49.43;;;46.33;;
9900;SDS011;4989;48.772;9.154;2023-08-17T01:05:49;34.80;;;32.20;;
9900;SDS011;4989;48.772;9.154;2023-08-17T01:16:16;57.90;;;54.53;;
9900;SDS011;4989;48.772;9.154;2023-08-17T01:21:41;54.37;;;51.13;;
9900;SDS011;4989;48.772;9.154;2023-08-17T01:26:51;34.90;;;32.30;;
9900;SDS011;4989;48.772;9.154;2023-08-17T01:37:09;59.70;;;56.20;;
9900;SDS011;4989;48.772;9.154;2023-08-17T01:42:16;60.97;;;57.40;;
9900;SDS011;4989;48.772;9.154;2023-08-17T01:47:22;40.60;;;37.67;;
9900;SDS011;4989;48.772;9.154;2023-08-17T01:52:26;35.73;;;32.93;;
9900;SDS011;4989;48.772;9.154;2023-08-17T01:57:30;42.63;;;39.63;;
9900;SDS011;4989;48.772;9.154;2023-08-17T02:02:32;58.40;;;54.90;;
9900;SDS011;4989;48.772;9.154;2023-08-17T02:07:34;59.70;;;56.13;;
9900;SDS011;4989;48.772;9.154;2023-08-17T02:12:36;59.37;;;55.87;;
9900;SDS011;4989;48.772;9.154;2023-08-17T02:17:39;62.93;;;59.40;;
9900;SDS011;4989;48.772;9.154;2023-08-17T02:22:43;72.73;;;68.77;;
9900;SDS011;4989;48.772;9.154;2023-08-17T02:27:46;58.53;;;55.03;;
9900;SDS011;4989;48.772;9.154;2023-08-17T02:32:48;41.03;;;38.13;;
9900;SDS011;4989;48.772;9.154;2023-08-17T02:37:51;34.83;;;32.13;;
9900;SDS011;4989;48.772;9.154;2023-08-17T02:42:53;35.50;;;32.73;;
9900;SDS011;4989;48.772;9.154;2023-08-17T02:47:56;35.40;;;32.63;;
9900;SDS011;4989;48.772;9.154;2023-08-17T02:52:59;38.40;;;35.53;;
9900;SDS011;4989;48.772;9.154;2023-08-17T02:58:03;60.57;;;56.90;;
9900;SDS011;4989;48.772;9.154;2023-08-17T03:03:05;62.50;;;58.80;;
9900;SDS011;4989;48.772;9.154;2023-08-17T03:08:08;58.83;;;55.30;;
9900;SDS011;4989;48.772;9.154;2023-08-17T03:13:10;60.83;;;57.27;;
9900;SDS011;4989;48.772;9.154;2023-08-17T03:18:12;61.80;;;58.20;;
9900;SDS011;4989;48.772;9.154;2023-08-17T03:23:14;58.60;;;55.17;;
9900;SDS011;4989;48.772;9.154;2023-08-17T03:28:16;50.97;;;47.83;;
9900;SDS011;4989;48.772;9.154;2023-08-17T03:33:19;36.37;;;33.97;;
9900;SDS011;4989;48.772;9.154;2023-08-17T03:38:21;30.37;;;28.30;;
9900;SDS011;4989;48.772;9.154;2023-08-17T03:43:23;30.17;;;28.10;;
9900;SDS011;4989;48.772;9.154;2023-08-17T03:48:28;30.10;;;28.00;;
9900;SDS011;4989;48.772;9.154;2023-08-17T03:53:30;35.83;;;33.53;;
9900;SDS011;4989;48.772;9.154;2023-08-17T03:58:33;46.00;;;43.47;;
9900;SDS011;4989;48.772;9.154;2023-08-17T04:03:36;50.53;;;47.83;;
9900;SDS011;4989;48.772;9.154;2023-08-17T04:08:38;52.00;;;49.23;;
9900;SDS011;4989;48.772;9.154;2023-08-17T04:13:40;49.23;;;46.53;;
9900;SDS011;4989;48.772;9.154;2023-08-17T04:18:43;50.27;;;47.57;;
9900;SDS011;4989;48.772;9.154;2023-08-17T04:23:46;49.13;;;46.43;;
9900;SDS011;4989;48.772;9.154;2023-08-17T04:28:48;34.20;;;32.00;;
9900;SDS011;4989;48.772;9.154;2023-08-17T04:33:51;30.87;;;28.80;;
9900;SDS011;4989;48.772;9.154;2023-08-17T04:38:54;29.57;;;27.60;;
9900;SDS011;4989;48.772;9.154;2023-08-17T04:43:56;29.83;;;27.87;;
9900;SDS011;4989;48.772;9.154;2023-08-17T04:48:59;30.90;;;28.87;;
9900;SDS011;4989;48.772;9.154;2023-08-17T04:54:01;41.73;;;39.37;;
9900;SDS011;4989;48.772;9.154;2023-08-17T04:59:04;49.20;;;46.60;;
9900;SDS011;4989;48.772;9.154;2023-08-17T05:04:07;48.83;;;46.23;;
9900;SDS011;4989;48.772;9.154;2023-08-17T05:09:09;48.77;;;46.17;;
9900;SDS011;4989;48.772;9.154;2023-08-17T05:14:13;50.33;;;47.63;;
9900;SDS011;4989;48.772;9.154;2023-08-17T05:19:15;53.70;;;50.83;;
9900;SDS011;4989;48.772;9.154;2023-08-17T05:24:18;40.00;;;37.60;;
9900;SDS011;4989;48.772;9.154;2023-08-17T05:29:22;31.43;;;29.23;;
9900;SDS011;4989;48.772;9.154;2023-08-17T05:34:24;31.30;;;29.20;;
9900;SDS011;4989;48.772;9.154;2023-08-17T05:39:27;30.70;;;28.63;;
9900;SDS011;4989;48.772;9.154;2023-08-17T05:44:30;36.30;;;34.00;;
9900;SDS011;4989;48.772;9.154;2023-08-17T05:49:32;48.80;;;46.03;;
9900;SDS011;4989;48.772;9.154;2023-08-17T05:54:34;55.77;;;52.70;;
9900;SDS011;4989;48.772;9.154;2023-08-17T05:59:37;54.47;;;51.37;;
9900;SDS011;4989;48.772;9.154;2023-08-17T06:04:39;53.63;;;50.50;;
9900;SDS011;4989;48.772;9.154;2023-08-17T06:09:41;57.17;;;53.83;;
9900;SDS011;4989;48.772;9.154;2023-08-17T06:14:44;58.23;;;54.77;;
9900;SDS011;4989;48.772;9.154;2023-08-17T06:19:46;56.07;;;52.67;;
9900;SDS011;4989;48.772;9.154;2023-08-17T06:24:48;41.17;;;38.27;;
9900;SDS011;4989;48.772;9.154;2023-08-17T06:29:50;34.57;;;31.93;;
9900;SDS011;4989;48.772;9.154;2023-08-17T06:34:52;35.00;;;32.40;;
9900;SDS011;4989;48.772;9.154;2023-08-17T06:39:55;34.43;;;31.83;;
9900;SDS011;4989;48.772;9.154;2023-08-17T06:44:57;34.63;;;31.97;;
9900;SDS011;4989;48.772;9.154;2023-08-17T06:50:00;41.57;;;38.60;;
9900;SDS011;4989;48.772;9.154;2023-08-17T06:55:02;56.93;;;53.47;;
9900;SDS011;4989;48.772;9.154;2023-08-17T07:00:05;62.30;;;58.67;;
9900;SDS011;4989;48.772;9.154;2023-08-17T07:05:08;59.50;;;55.93;;
9900;SDS011;4989;48.772;9.154;2023-08-17T07:10:11;62.00;;;58.33;;
9900;SDS011;4989;48.772;9.154;2023-08-17T07:15:14;61.43;;;57.83;;
9900;SDS011;4989;48.772;9.154;2023-08-17T07:20:16;56.43;;;53.00;;
9900;SDS011;4989;48.772;9.154;2023-08-17T07:25:19;39.90;;;37.00;;
9900;SDS011;4989;48.772;9.154;2023-08-17T07:30:21;36.13;;;33.33;;
9900;SDS011;4989;48.772;9.154;2023-08-17T07:35:23;36.40;;;33.50;;
9900;SDS011;4989;48.772;9.154;2023-08-17T07:40:25;35.97;;;33.07;;
9900;SDS011;4989;48.772;9.154;2023-08-17T07:45:28;36.97;;;34.00;;
9900;SDS011;4989;48.772;9.154;2023-08-17T07:50:30;42.27;;;39.10;;
9900;SDS011;4989;48.772;9.154;2023-08-17T07:55:32;60.53;;;56.70;;
9900;SDS011;4989;48.772;9.154;2023-08-17T08:00:54;38.03;;;34.97;;
9900;SDS011;4989;48.772;9.154;2023-08-17T08:05:57;37.70;;;34.60;;
9900;SDS011;4989;48.772;9.154;2023-08-17T08:11:00;42.93;;;39.73;;
9900;SDS011;4989;48.772;9.154;2023-08-17T08:16:02;56.70;;;53.00;;
9900;SDS011;4989;48.772;9.154;2023-08-17T08:21:05;64.70;;;60.67;;
9900;SDS011;4989;48.772;9.154;2023-08-17T08:26:07;64.87;;;60.83;;
9900;SDS011;4989;48.772;9.154;2023-08-17T08:31:09;64.20;;;60.23;;
9900;SDS011;4989;48.772;9.154;2023-08-17T08:36:11;66.33;;;62.33;;
9900;SDS011;4989;48.772;9.154;2023-08-17T08:41:14;63.10;;;59.17;;
9900;SDS011;4989;48.772;9.154;2023-08-17T08:46:16;60.93;;;57.07;;
9900;SDS011;4989;48.772;9.154;2023-08-17T08:51:22;39.23;;;36.13;;
9900;SDS011;4989;48.772;9.154;2023-08-17T08:56:31;42.40;;;39.13;;
9900;SDS011;4989;48.772;9.154;2023-08-17T09:01:35;66.53;;;62.47;;
9900;SDS011;4989;48.772;9.154;2023-08-17T09:06:38;63.73;;;59.73;;
9900;SDS011;4989;48.772;9.154;2023-08-17T09:11:42;62.80;;;58.87;;
9900;SDS011;4989;48.772;9.154;2023-08-17T09:16:45;67.50;;;63.40;;
9900;SDS011;4989;48.772;9.154;2023-08-17T09:21:48;49.40;;;45.90;;
9900;SDS011;4989;48.772;9.154;2023-08-17T09:26:52;38.13;;;35.03;;
9900;SDS011;4989;48.772;9.154;2023-08-17T09:31:56;39.20;;;36.00;;
9900;SDS011;4989;48.772;9.154;2023-08-17T09:37:05;39.90;;;36.70;;
9900;SDS011;4989;48.772;9.154;2023-08-17T09:42:07;67.97;;;63.73;;
9900;SDS011;4989;48.772;9.154;2023-08-17T09:47:12;64.50;;;60.20;;
9900;SDS011;4989;48.772;9.154;2023-08-17T09:52:14;64.53;;;60.33;;
9900;SDS011;4989;48.772;9.154;2023-08-17T09:57:17;61.83;;;57.83;;
9900;SDS011;4989;48.772;9.154;2023-08-17T10:02:23;38.00;;;34.80;;
9900;SDS011;4989;48.772;9.154;2023-08-17T10:07:30;39.50;;;36.30;;
9900;SDS011;4989;48.772;9.154;2023-08-17T10:12:36;62.70;;;58.63;;
9900;SDS011;4989;48.772;9.154;2023-08-17T10:18:00;38.13;;;34.93;;
9900;SDS011;4989;48.772;9.154;2023-08-17T10:23:19;63.10;;;59.10;;
9900;SDS011;4989;48.772;9.154;2023-08-17T10:28:25;37.50;;;34.37;;
9900;SDS011;4989;48.772;9.154;2023-08-17T10:33:28;38.50;;;35.30;;
9900;SDS011;4989;48.772;9.154;2023-08-17T10:38:31;47.43;;;43.97;;
9900;SDS011;4989;48.772;9.154;2023-08-17T10:43:33;58.50;;;54.63;;
9900;SDS011;4989;48.772;9.154;2023-08-17T10:48:36;62.03;;;58.13;;
9900;SDS011;4989;48.772;9.154;2023-08-17T10:53:38;62.10;;;58.20;;
9900;SDS011;4989;48.772;9.154;2023-08-17T10:58:45;63.50;;;59.57;;
9900;SDS011;4989;48.772;9.154;2023-08-17T11:03:47;50.60;;;47.10;;
9900;SDS011;4989;48.772;9.154;2023-08-17T11:09:34;56.60;;;52.93;;
9900;SDS011;4989;48.772;9.154;2023-08-17T11:14:37;62.90;;;58.93;;
9900;SDS011;4989;48.772;9.154;2023-08-17T11:19:39;60.60;;;56.70;;
9900;SDS011;4989;48.772;9.154;2023-08-17T11:24:42;65.40;;;61.30;;
9900;SDS011;4989;48.772;9.154;2023-08-17T11:29:45;65.63;;;61.53;;
9900;SDS011;4989;48.772;9.154;2023-08-17T11:34:48;47.40;;;43.87;;
9900;SDS011;4989;48.772;9.154;2023-08-17T11:39:51;39.00;;;35.80;;
9900;SDS011;4989;48.772;9.154;2023-08-17T11:44:53;38.70;;;35.27;;
9900;SDS011;4989;48.772;9.154;2023-08-17T11:49:59;39.30;;;35.87;;
9900;SDS011;4989;48.772;9.154;2023-08-17T11:55:21;37.93;;;34.77;;
9900;SDS011;4989;48.772;9.154;2023-08-17T12:00:23;38.00;;;34.87;;
9900;SDS011;4989;48.772;9.154;2023-08-17T12:05:27;38.10;;;34.97;;
9900;SDS011;4989;48.772;9.154;2023-08-17T12:10:32;55.60;;;51.93;;
9900;SDS011;4989;48.772;9.154;2023-08-17T12:15:35;60.10;;;56.23;;
9900;SDS011;4989;48.772;9.154;2023-08-17T12:20:37;61.00;;;57.10;;
9900;SDS011;4989;48.772;9.154;2023-08-17T12:25:44;65.60;;;61.60;;
9900;SDS011;4989;48.772;9.154;2023-08-17T12:30:46;62.90;;;58.93;;
9900;SDS011;4989;48.772;9.154;2023-08-17T12:35:49;48.97;;;45.47;;
9900;SDS011;4989;48.772;9.154;2023-08-17T12:40:51;37.93;;;34.83;;
9900;SDS011;4989;48.772;9.154;2023-08-17T12:45:53;38.40;;;35.23;;
9900;SDS011;4989;48.772;9.154;2023-08-17T12:50:56;38.63;;;35.47;;
9900;SDS011;4989;48.772;9.154;2023-08-17T12:55:58;38.07;;;34.97;;
9900;SDS011;4989;48.772;9.154;2023-08-17T13:01:01;43.20;;;39.93;;
9900;SDS011;4989;48.772;9.154;2023-08-17T13:06:04;61.60;;;57.70;;
9900;SDS011;4989;48.772;9.154;2023-08-17T13:11:07;63.43;;;59.50;;
9900;SDS011;4989;48.772;9.154;2023-08-17T13:16:09;68.13;;;64.00;;
9900;SDS011;4989;48.772;9.154;2023-08-17T13:21:13;62.53;;;58.60;;
9900;SDS011;4989;48.772;9.154;2023-08-17T13:26:17;61.57;;;57.67;;
9900;SDS011;4989;48.772;9.154;2023-08-17T13:31:19;42.90;;;39.60;;
9900;SDS011;4989;48.772;9.154;2023-08-17T13:36:25;39.83;;;36.63;;
9900;SDS011;4989;48.772;9.154;2023-08-17T13:41:27;38.50;;;35.37;;
9900;SDS011;4989;48.772;9.154;2023-08-17T13:46:30;40.87;;;37.67;;
9900;SDS011;4989;48.772;9.154;2023-08-17T13:51:32;55.03;;;51.30;;
9900;SDS011;4989;48.772;9.154;2023-08-17T13:56:34;64.07;;;60.03;;
9900;SDS011;4989;48.772;9.154;2023-08-17T14:01:37;63.80;;;59.77;;
9900;SDS011;4989;48.772;9.154;2023-08-17T14:06:39;63.30;;;59.27;;
9900;SDS011;4989;48.772;9.154;2023-08-17T14:11:42;62.13;;;58.13;;
9900;SDS011;4989;48.772;9.154;2023-08-17T14:16:44;61.10;;;57.17;;
9900;SDS011;4989;48.772;9.154;2023-08-17T14:21:47;60.40;;;56.47;;
9900;SDS011;4989;48.772;9.154;2023-08-17T14:26:53;38.23;;;35.03;;
9900;SDS011;4989;48.772;9.154;2023-08-17T14:31:55;39.70;;;36.40;;
9900;SDS011;4989;48.772;9.154;2023-08-17T14:37:00;44.73;;;41.27;;
9900;SDS011;4989;48.772;9.154;2023-08-17T14:42:03;61.00;;;57.03;;
9900;SDS011;4989;48.772;9.154;2023-08-17T14:47:06;65.47;;;61.33;;
9900;SDS011;4989;48.772;9.154;2023-08-17T14:52:09;66.33;;;62.17;;
9900;SDS011;4989;48.772;9.154;2023-08-17T14:57:11;67.17;;;63.00;;
9900;SDS011;4989;48.772;9.154;2023-08-17T15:02:13;63.33;;;59.30;;
9900;SDS011;4989;48.772;9.154;2023-08-17T15:07:23;38.20;;;34.93;;
9900;SDS011;4989;48.772;9.154;2023-08-17T15:12:26;39.80;;;36.50;;
9900;SDS011;4989;48.772;9.154;2023-08-17T15:17:29;38.10;;;34.80;;
9900;SDS011;4989;48.772;9.154;2023-08-17T15:22:31;50.27;;;46.63;;
9900;SDS011;4989;48.772;9.154;2023-08-17T15:27:33;62.87;;;58.73;;
9900;SDS011;4989;48.772;9.154;2023-08-17T15:32:38;67.83;;;63.43;;
9900;SDS011;4989;48.772;9.154;2023-08-17T15:37:40;68.13;;;63.80;;
9900;SDS011;4989;48.772;9.154;2023-08-17T15:42:42;67.23;;;62.90;;
9900;SDS011;4989;48.772;9.154;2023-08-17T15:47:45;69.07;;;64.67;;
9900;SDS011;4989;48.772;9.154;2023-08-17T15:52:51;39.23;;;35.80;;
9900;SDS011;4989;48.772;9.154;2023-08-17T16:03:17;56.53;;;52.53;;
9900;SDS011;4989;48.772;9.154;2023-08-17T16:08:19;46.50;;;42.77;;
9900;SDS011;4989;48.772;9.154;2023-08-17T16:13:33;63.27;;;59.00;;
9900;SDS011;4989;48.772;9.154;2023-08-17T16:18:36;70.43;;;65.93;;
9900;SDS011;4989;48.772;9.154;2023-08-17T16:23:38;69.80;;;65.30;;
9900;SDS011;4989;48.772;9.154;2023-08-17T16:28:40;74.63;;;69.93;;
9900;SDS011;4989;48.772;9.154;2023-08-17T16:33:44;70.57;;;66.07;;
9900;SDS011;4989;48.772;9.154;2023-08-17T16:38:48;52.77;;;48.77;;
9900;SDS011;4989;48.772;9.154;2023-08-17T16:43:56;41.10;;;37.53;;
9900;SDS011;4989;48.772;9.154;2023-08-17T16:49:06;66.10;;;61.77;;
9900;SDS011;4989;48.772;9.154;2023-08-17T16:54:08;70.73;;;66.23;;
9900;SDS011;4989;48.772;9.154;2023-08-17T16:59:10;67.07;;;62.67;;
9900;SDS011;4989;48.772;9.154;2023-08-17T17:04:12;66.00;;;61.60;;
9900;SDS011;4989;48.772;9.154;2023-08-17T17:09:15;69.57;;;64.97;;
9900;SDS011;4989;48.772;9.154;2023-08-17T17:14:19;48.93;;;44.93;;
9900;SDS011;4989;48.772;9.154;2023-08-17T17:19:21;41.00;;;37.30;;
9900;SDS011;4989;48.772;9.154;2023-08-17T17:24:25;39.17;;;35.70;;
9900;SDS011;4989;48.772;9.154;2023-08-17T17:29:30;44.33;;;40.67;;
9900;SDS011;4989;48.772;9.154;2023-08-17T17:34:35;65.73;;;61.40;;
9900;SDS011;4989;48.772;9.154;2023-08-17T17:39:37;68.07;;;63.57;;
9900;SDS011;4989;48.772;9.154;2023-08-17T17:44:39;71.57;;;66.97;;
9900;SDS011;4989;48.772;9.154;2023-08-17T17:49:41;82.43;;;77.40;;
9900;SDS011;4989;48.772;9.154;2023-08-17T17:54:44;66.37;;;61.87;;
9900;SDS011;4989;48.772;9.154;2023-08-17T17:59:46;66.67;;;62.17;;
9900;SDS011;4989;48.772;9.154;2023-08-17T18:04:50;45.17;;;41.40;;
9900;SDS011;4989;48.772;9.154;2023-08-17T18:09:57;41.47;;;37.83;;
9900;SDS011;4989;48.772;9.154;2023-08-17T18:15:00;39.27;;;35.77;;
9900;SDS011;4989;48.772;9.154;2023-08-17T18:20:04;59.17;;;55.10;;
9900;SDS011;4989;48.772;9.154;2023-08-17T18:25:09;65.57;;;61.27;;
9900;SDS011;4989;48.772;9.154;2023-08-17T18:30:11;68.03;;;63.73;;
9900;SDS011;4989;48.772;9.154;2023-08-17T18:35:14;67.00;;;62.70;;
9900;SDS011;4989;48.772;9.154;2023-08-17T18:40:37;66.77;;;62.40;;
9900;SDS011;4989;48.772;9.154;2023-08-17T18:45:40;65.60;;;61.30;;
9900;SDS011;4989;48.772;9.154;2023-08-17T18:50:42;67.30;;;63.00;;
9900;SDS011;4989;48.772;9.154;2023-08-17T18:55:44;69.77;;;65.50;;
9900;SDS011;4989;48.772;9.154;2023-08-17T19:00:46;70.97;;;66.67;;
9900;SDS011;4989;48.772;9.154;2023-08-17T19:05:49;45.27;;;41.77;;
9900;SDS011;4989;48.772;9.154;2023-08-17T19:10:51;53.50;;;49.63;;
9900;SDS011;4989;48.772;9.154;2023-08-17T19:15:57;40.00;;;36.67;;
9900;SDS011;4989;48.772;9.154;2023-08-17T19:21:00;38.67;;;35.40;;
9900;SDS011;4989;48.772;9.154;2023-08-17T19:26:02;51.23;;;47.57;;
9900;SDS011;4989;48.772;9.154;2023-08-17T19:31:05;65.20;;;61.03;;
9900;SDS011;4989;48.772;9.154;2023-08-17T19:36:08;64.57;;;60.47;;
9900;SDS011;4989;48.772;9.154;2023-08-17T19:41:10;67.13;;;62.90;;
9900;SDS011;4989;48.772;9.154;2023-08-17T19:46:15;68.70;;;64.43;;
9900;SDS011;4989;48.772;9.154;2023-08-17T19:51:17;65.90;;;61.73;;
9900;SDS011;4989;48.772;9.154;2023-08-17T19:56:19;45.07;;;41.57;;
9900;SDS011;4989;48.772;9.154;2023-08-17T20:01:21;39.40;;;36.07;;
9900;SDS011;4989;48.772;9.154;2023-08-17T20:06:27;39.20;;;35.90;;
9900;SDS011;4989;48.772;9.154;2023-08-17T20:11:29;38.43;;;35.17;;
9900;SDS011;4989;48.772;9.154;2023-08-17T20:16:32;50.63;;;46.93;;
9900;SDS011;4989;48.772;9.154;2023-08-17T20:21:36;69.53;;;65.27;;
9900;SDS011;4989;48.772;9.154;2023-08-17T20:26:39;68.13;;;63.93;;
9900;SDS011;4989;48.772;9.154;2023-08-17T20:31:41;68.87;;;64.60;;
9900;SDS011;4989;48.772;9.154;2023-08-17T20:36:43;69.13;;;64.90;;
9900;SDS011;4989;48.772;9.154;2023-08-17T20:41:46;66.93;;;62.73;;
9900;SDS011;4989;48.772;9.154;2023-08-17T20:46:48;56.17;;;52.30;;
9900;SDS011;4989;48.772;9.154;2023-08-17T20:57:27;39.13;;;35.93;;
9900;SDS011;4989;48.772;9.154;2023-08-17T21:02:30;39.43;;;36.23;;
9900;SDS011;4989;48.772;9.154;2023-08-17T21:07:34;63.93;;;59.93;;
9900;SDS011;4989;48.772;9.154;2023-08-17T21:12:37;64.87;;;60.80;;
9900;SDS011;4989;48.772;9.154;2023-08-17T21:17:40;63.70;;;59.67;;
9900;SDS011;4989;48.772;9.154;2023-08-17T21:22:45;62.90;;;58.90;;
9900;SDS011;4989;48.772;9.154;2023-08-17T21:27:52;39.30;;;36.07;;
9900;SDS011;4989;48.772;9.154;2023-08-17T21:32:55;39.13;;;35.93;;
9900;SDS011;4989;48.772;9.154;2023-08-17T21:37:57;38.83;;;35.63;;
9900;SDS011;4989;48.772;9.154;2023-08-17T21:42:59;38.03;;;34.93;;
9900;SDS011;4989;48.772;9.154;2023-08-17T21:48:02;49.77;;;46.23;;
9900;SDS011;4989;48.772;9.154;2023-08-17T21:53:05;67.17;;;63.10;;
9900;SDS011;4989;48.772;9.154;2023-08-17T21:58:10;62.77;;;58.83;;
9900;SDS011;4989;48.772;9.154;2023-08-17T22:03:16;63.57;;;59.63;;
9900;SDS011;4989;48.772;9.154;2023-08-17T22:08:21;37.73;;;34.63;;
9900;SDS011;4989;48.772;9.154;2023-08-17T22:13:24;51.00;;;47.47;;
9900;SDS011;4989;48.772;9.154;2023-08-17T22:18:26;37.87;;;34.80;;
9900;SDS011;4989;48.772;9.154;2023-08-17T22:23:28;37.47;;;34.47;;
9900;SDS011;4989;48.772;9.154;2023-08-17T22:28:31;52.80;;;49.27;;
9900;SDS011;4989;48.772;9.154;2023-08-17T22:33:33;62.40;;;58.67;;
9900;SDS011;4989;48.772;9.154;2023-08-17T22:38:36;61.70;;;57.93;;
9900;SDS011;4989;48.772;9.154;2023-08-17T22:43:38;64.27;;;60.43;;
9900;SDS011;4989;48.772;9.154;2023-08-17T22:48:40;80.33;;;75.93;;
9900;SDS011;4989;48.772;9.154;2023-08-17T22:53:45;62.93;;;59.17;;
9900;SDS011;4989;48.772;9.154;2023-08-17T22:58:47;60.20;;;56.50;;
9900;SDS011;4989;48.772;9.154;2023-08-17T23:03:49;41.30;;;38.30;;
9900;SDS011;4989;48.772;9.154;2023-08-17T23:08:52;37.00;;;34.13;;
9900;SDS011;4989;48.772;9.154;2023-08-17T23:13:54;36.27;;;33.43;;
9900;SDS011;4989;48.772;9.154;2023-08-17T23:18:59;36.17;;;33.33;;
9900;SDS011;4989;48.772;9.154;2023-08-17T23:24:03;51.90;;;48.50;;
9900;SDS011;4989;48.772;9.154;2023-08-17T23:29:05;61.67;;;57.97;;
9900;SDS011;4989;48.772;9.154;2023-08-17T23:34:09;67.37;;;63.50;;
9900;SDS011;4989;48.772;9.154;2023-08-17T23:39:11;61.23;;;57.53;;
9900;SDS011;4989;48.772;9.154;2023-08-17T23:44:17;66.23;;;62.40;;
9900;SDS011;4989;48.772;9.154;2023-08-17T23:49:22;37.23;;;34.27;;
9900;SDS011;4989;48.772;9.154;2023-08-17T23:54:25;37.07;;;34.07;;
9900;SDS011;4989;48.772;9.154;2023-08-17T23:59:30;37.37;;;34.37;;
